CheckWX is a tool to help pilots better visualize weather data.  It is not intended as a substitute for an official pre-flight weather briefing.

08:34:44 UTC

KSDY TAF
Sidney-Richland Regional Airport
Sidney, Montana, USA
KSDY 220554Z 2206/2306 26009KT P6SM SCT120 FM220900 22007KT P6SM VCFG SCT025 FM221200 27007KT P6SM BKN060

Jan-22@
06:00 UTC

Jan-22 @ 06:00 UTC

Jan-22@
09:00 UTC

Jan-22 @ 09:00 UTC

KSDY 220554Z 2206/2306 26009KT P6SM SCT120
Wind
  • 260° at 9 KTS
Cloud Levels
  • Scattered at 12,000' AGL

Jan-22@
09:00 UTC

Jan-22 @ 09:00 UTC

Jan-22@
12:00 UTC

Jan-22 @ 12:00 UTC

FM220900 22007KT P6SM VCFG SCT025

From

From Standard forecast or significant change

Wind
  • 220° at 7 KTS
Conditions
Area Fog
Cloud Levels
  • Scattered at 2,500' AGL

Jan-22@
12:00 UTC

Jan-22 @ 12:00 UTC

Jan-23@
06:00 UTC

Jan-23 @ 06:00 UTC

FM221200 27007KT P6SM BKN060

From

From Standard forecast or significant change

Wind
  • 270° at 7 KTS
Cloud Levels
  • Broken at 6,000' AGL